SAOU/LUQ METAR and TAF weather

Enter ICAO airport designator
Station Type Date Time Source
SAOU METAR 2021/07/09 16:10 UTC NOAA

SAOU 091610Z 32010KT CAVOK 21/11 Q1012 RMK ESTIMATED WIND


Station Type Date Time Source
SAOU Decoded METAR 2021/07/09 16:10 UTC NOAA

San Luis Aerodrome, Argentina (SAOU) 33-16S 066-21W 713M
Jul 09, 2021 - 12:10 PM EDT / 2021.07.09 1610 UTC
Wind: from the NW (320 degrees) at 12 MPH (10 KT):0
Visibility: greater than 7 mile(s):0
Temperature: 69 F (21 C)
Dew Point: 51 F (11 C)
Relative Humidity: 52%
Pressure (altimeter): 29.88 in. Hg (1012 hPa)
ob: SAOU 091610Z 32010KT CAVOK 21/11 Q1012 RMK ESTIMATED WIND
cycle: 16

Station Type Date Time Source
SAOU TAF 2021/07/20 12:36 UTC NOAA

TAF SAOU 201100Z 2012/2112 36015KT CAVOK TX20/2018Z TN03/2109Z

Example: see airport list